Time;durP1;ratioP1;P1;durP2;ratioP2;P2;SDS_P1;SDS_P2;PMS_P1;PMS_P2;Temp;Humidity;BMP_temperature;BMP_pressure;BME280_temperature;BME280_humidity;BME280_pressure;Samples;Min_cycle;Max_cycle;Signal;HPM_P1;HPM_P2
2023/08/08 00:00:06;;;;;;;2.30;1.47;;;11.40;99.90;;;;;;2048508;28;20283;-83
2023/08/08 00:01:07;;;;;;;1.90;1.50;;;11.40;99.90;;;;;;2056889;28;20230;-85
2023/08/08 00:02:08;;;;;;;2.27;1.50;;;11.40;99.90;;;;;;2048572;29;20184;-84
2023/08/08 00:03:09;;;;;;;2.43;1.40;;;11.40;99.90;;;;;;2064686;28;20184;-85
2023/08/08 00:04:10;;;;;;;2.00;1.57;;;11.50;99.90;;;;;;2064118;28;20203;-85
2023/08/08 00:05:11;;;;;;;1.83;1.65;;;11.40;99.90;;;;;;2046494;28;20184;-84
2023/08/08 00:06:11;;;;;;;2.40;1.90;;;11.40;99.90;;;;;;2040259;28;20208;-84
2023/08/08 00:07:12;;;;;;;1.67;1.47;;;11.40;99.90;;;;;;2044801;28;20275;-85
2023/08/08 00:08:13;;;;;;;2.90;1.43;;;11.30;99.90;;;;;;2044290;28;20275;-84
2023/08/08 00:09:13;;;;;;;2.47;1.53;;;11.30;99.90;;;;;;2044083;28;20223;-84
2023/08/08 00:10:14;;;;;;;1.97;1.77;;;11.30;99.90;;;;;;2052380;28;20888;-84
2023/08/08 00:11:15;;;;;;;3.23;1.33;;;11.30;99.90;;;;;;2055792;28;20227;-84
2023/08/08 00:12:16;;;;;;;1.87;1.67;;;11.40;99.90;;;;;;2056151;28;20253;-84
2023/08/08 00:13:16;;;;;;;1.70;1.33;;;11.50;99.90;;;;;;2048619;28;20510;-84
2023/08/08 00:14:17;;;;;;;1.90;1.50;;;11.30;99.90;;;;;;2055769;28;20317;-84
2023/08/08 00:15:18;;;;;;;1.60;1.50;;;11.30;99.90;;;;;;2048098;28;20195;-84
2023/08/08 00:16:18;;;;;;;1.63;1.30;;;11.30;99.90;;;;;;2053299;28;20577;-84
2023/08/08 00:17:20;;;;;;;2.55;1.50;;;11.20;99.90;;;;;;2047665;28;20959;-84
2023/08/08 00:18:21;;;;;;;3.23;1.50;;;11.30;99.90;;;;;;2044210;28;20268;-84
2023/08/08 00:19:21;;;;;;;2.10;1.70;;;11.40;99.90;;;;;;2052215;28;20230;-84
2023/08/08 00:20:22;;;;;;;3.50;1.50;;;11.40;99.90;;;;;;2056291;28;20317;-84
2023/08/08 00:21:23;;;;;;;1.57;1.43;;;11.50;99.90;;;;;;2052219;28;20277;-84
2023/08/08 00:22:23;;;;;;;1.97;1.50;;;11.50;99.90;;;;;;2046149;28;20234;-84
2023/08/08 00:23:24;;;;;;;1.87;1.50;;;11.40;99.90;;;;;;2038714;29;20282;-85
2023/08/08 00:24:25;;;;;;;2.37;1.50;;;11.40;99.90;;;;;;2047454;28;20668;-84
2023/08/08 00:25:26;;;;;;;2.00;1.50;;;11.40;99.90;;;;;;2051105;28;20262;-84
2023/08/08 00:26:26;;;;;;;2.90;1.50;;;11.40;99.90;;;;;;2047919;28;20609;-84
2023/08/08 00:27:27;;;;;;;2.47;1.60;;;11.40;99.90;;;;;;2051499;28;20234;-84
2023/08/08 00:28:28;;;;;;;1.70;1.47;;;11.40;99.90;;;;;;2053381;28;20234;-84
2023/08/08 00:29:28;;;;;;;1.50;1.37;;;11.50;99.90;;;;;;2047838;28;20227;-84
2023/08/08 00:30:29;;;;;;;2.10;1.50;;;11.40;99.90;;;;;;2048106;28;20238;-84
2023/08/08 00:31:30;;;;;;;2.43;1.37;;;11.40;99.90;;;;;;2063317;28;21032;-84
2023/08/08 00:32:30;;;;;;;2.70;1.60;;;11.60;99.90;;;;;;2058871;28;20273;-84
2023/08/08 00:33:31;;;;;;;1.47;1.27;;;11.50;99.90;;;;;;2048391;28;20650;-84
2023/08/08 00:34:32;;;;;;;2.90;1.60;;;11.40;99.90;;;;;;2039695;29;20266;-83
2023/08/08 00:35:32;;;;;;;2.77;1.57;;;11.40;99.90;;;;;;2047300;28;20731;-84
2023/08/08 00:36:33;;;;;;;2.50;1.80;;;11.40;99.90;;;;;;2055881;28;20289;-84
2023/08/08 00:37:34;;;;;;;2.07;1.40;;;11.30;99.90;;;;;;2047337;28;20231;-83
2023/08/08 00:38:34;;;;;;;2.00;1.47;;;11.30;99.90;;;;;;2038628;28;20340;-84
2023/08/08 00:39:35;;;;;;;1.97;1.40;;;11.30;99.90;;;;;;2049340;28;20692;-83
2023/08/08 00:40:36;;;;;;;4.33;1.80;;;11.30;99.90;;;;;;2047838;28;20253;-84
2023/08/08 00:41:36;;;;;;;1.70;1.43;;;11.30;99.90;;;;;;2047239;28;20238;-83
2023/08/08 00:42:37;;;;;;;1.60;1.33;;;11.30;99.90;;;;;;2047755;28;20255;-84
2023/08/08 00:43:38;;;;;;;2.10;1.40;;;11.30;99.90;;;;;;2055250;28;20769;-84
2023/08/08 00:44:40;;;;;;;2.57;1.53;;;11.30;99.90;;;;;;2052440;28;20267;-84
2023/08/08 00:45:44;;;;;;;2.38;1.58;;;11.20;99.90;;;;;;2048473;28;20211;-84
2023/08/08 00:46:45;;;;;;;2.67;1.55;;;11.20;99.90;;;;;;2049178;28;20239;-84
2023/08/08 00:47:45;;;;;;;2.50;1.30;;;11.20;99.90;;;;;;2048376;28;20230;-84
2023/08/08 00:48:46;;;;;;;3.37;1.40;;;11.10;99.90;;;;;;2053008;28;20741;-84
2023/08/08 00:49:48;;;;;;;1.53;1.43;;;11.00;99.90;;;;;;2050407;28;20235;-84
2023/08/08 00:50:50;;;;;;;2.95;1.65;;;11.00;99.90;;;;;;2049521;28;20207;-84
2023/08/08 00:51:51;;;;;;;2.65;1.90;;;11.10;99.90;;;;;;2047394;28;20265;-84
2023/08/08 00:52:52;;;;;;;2.00;1.50;;;11.10;99.90;;;;;;2047760;28;20598;-84
2023/08/08 00:53:54;;;;;;;2.80;1.70;;;11.10;99.90;;;;;;2063492;28;20350;-84
2023/08/08 00:54:55;;;;;;;2.00;1.60;;;11.10;99.90;;;;;;2053712;28;20239;-84
2023/08/08 00:55:56;;;;;;;1.50;1.40;;;11.10;99.90;;;;;;2039675;29;20257;-84
2023/08/08 00:56:56;;;;;;;1.80;1.40;;;11.10;99.90;;;;;;2048120;28;20313;-84
2023/08/08 00:57:57;;;;;;;2.30;1.67;;;11.10;99.90;;;;;;2047459;28;20235;-84
2023/08/08 00:58:58;;;;;;;2.67;1.50;;;11.00;99.90;;;;;;2047388;28;20767;-86
2023/08/08 00:59:58;;;;;;;1.80;1.70;;;11.00;99.90;;;;;;2043387;29;20332;-84
2023/08/08 01:00:59;;;;;;;2.00;1.50;;;11.00;99.90;;;;;;2052800;28;20758;-84
2023/08/08 01:02:00;;;;;;;2.10;1.80;;;11.00;99.90;;;;;;2055487;28;20685;-84
2023/08/08 01:03:01;;;;;;;2.10;1.40;;;11.00;99.90;;;;;;2044371;29;20468;-83
2023/08/08 01:04:06;;;;;;;1.63;1.53;;;11.00;99.90;;;;;;2055463;28;20182;-84
2023/08/08 01:05:07;;;;;;;1.88;1.38;;;11.00;99.90;;;;;;2055882;28;20179;-84
2023/08/08 01:06:51;;;;;;;2.67;1.40;;;11.00;99.90;;;;;;2063677;28;20186;-84
2023/08/08 01:08:07;;;;;;;1.60;1.50;;;11.00;99.90;;;;;;2062084;28;20729;-84
2023/08/08 01:09:24;;;;;;;3.30;1.58;;;11.00;99.90;;;;;;2062632;28;20228;-84
2023/08/08 01:10:33;;;;;;;2.00;1.50;;;11.00;99.90;;;;;;2057921;28;20599;-83
2023/08/08 01:11:36;;;;;;;2.67;1.55;;;11.00;99.90;;;;;;2058552;28;20302;-83
2023/08/08 01:12:43;;;;;;;2.05;1.52;;;11.10;99.90;;;;;;2049826;29;20220;-84
2023/08/08 01:13:46;;;;;;;2.30;1.42;;;11.00;99.90;;;;;;2040552;28;20232;-84
2023/08/08 01:14:47;;;;;;;3.88;1.90;;;11.00;99.90;;;;;;2049327;28;20690;-84
2023/08/08 01:15:49;;;;;;;2.83;1.40;;;11.10;99.90;;;;;;2053497;28;20238;-84
2023/08/08 01:16:57;;;;;;;4.43;1.60;;;11.20;99.90;;;;;;2058327;28;20234;-83
2023/08/08 01:17:58;;;;;;;2.88;1.60;;;11.30;99.90;;;;;;2054688;28;20290;-84
2023/08/08 01:18:59;;;;;;;2.03;1.50;;;11.30;99.90;;;;;;2057280;28;20222;-84
2023/08/08 01:20:03;;;;;;;2.10;1.35;;;11.40;99.90;;;;;;2056193;28;20223;-84
2023/08/08 01:21:05;;;;;;;1.98;1.38;;;11.30;99.90;;;;;;2039920;28;20440;-84
2023/08/08 01:22:14;;;;;;;4.15;1.60;;;11.30;99.90;;;;;;2040336;28;20263;-84
2023/08/08 01:23:52;;;;;;;2.72;1.60;;;11.30;99.90;;;;;;2041857;28;20286;-84
2023/08/08 01:24:54;;;;;;;2.65;1.60;;;11.30;99.90;;;;;;2060844;28;20225;-84
2023/08/08 01:25:57;;;;;;;2.00;1.35;;;11.10;99.90;;;;;;2052464;28;20254;-83
2023/08/08 01:27:00;;;;;;;3.25;1.65;;;11.00;99.90;;;;;;2045353;28;20270;-84
2023/08/08 01:28:01;;;;;;;3.67;1.40;;;11.00;99.90;;;;;;2050277;28;20238;-84
2023/08/08 01:29:01;;;;;;;2.43;1.80;;;11.00;99.90;;;;;;2056055;28;20479;-84
2023/08/08 01:30:03;;;;;;;3.33;1.63;;;11.00;99.90;;;;;;2055741;28;20190;-84
2023/08/08 01:31:04;;;;;;;1.90;1.40;;;10.90;99.90;;;;;;2047998;28;20453;-84
2023/08/08 01:32:05;;;;;;;1.50;1.40;;;10.80;99.90;;;;;;2048063;28;20199;-84
2023/08/08 01:33:08;;;;;;;3.70;1.60;;;10.80;99.90;;;;;;2054962;28;20190;-84
2023/08/08 01:34:08;;;;;;;1.88;1.60;;;10.80;99.90;;;;;;2055446;28;20228;-83
2023/08/08 01:35:09;;;;;;;1.93;1.43;;;10.80;99.90;;;;;;2055455;28;20188;-84
2023/08/08 01:36:28;;;;;;;2.40;1.53;;;10.80;99.90;;;;;;2052298;28;20186;-83
2023/08/08 01:37:36;;;;;;;2.00;1.70;;;10.90;99.90;;;;;;2049858;28;20634;-84
2023/08/08 01:38:43;;;;;;;2.45;1.50;;;10.80;99.90;;;;;;2049220;28;20235;-83
2023/08/08 01:39:46;;;;;;;3.38;1.45;;;10.90;99.90;;;;;;2047008;28;20230;-84
2023/08/08 01:40:47;;;;;;;1.70;1.60;;;10.90;99.90;;;;;;2040229;28;20227;-84
2023/08/08 01:41:48;;;;;;;1.52;1.42;;;10.90;99.90;;;;;;2039677;28;20668;-83
2023/08/08 01:42:50;;;;;;;4.32;1.80;;;10.90;99.90;;;;;;2052896;28;20283;-84
2023/08/08 01:43:51;;;;;;;1.88;1.40;;;10.90;99.90;;;;;;2062711;28;20229;-84
2023/08/08 01:44:54;;;;;;;1.80;1.50;;;11.00;99.90;;;;;;2056140;28;20237;-84
2023/08/08 01:45:55;;;;;;;1.55;1.45;;;10.90;99.90;;;;;;2040361;28;21015;-86
2023/08/08 01:46:56;;;;;;;2.55;1.70;;;10.90;99.90;;;;;;2039805;28;20334;-84
2023/08/08 01:47:57;;;;;;;2.30;1.57;;;10.90;99.90;;;;;;2039659;29;20775;-83
2023/08/08 01:48:59;;;;;;;2.23;1.70;;;10.90;99.90;;;;;;2047725;28;20339;-85
2023/08/08 01:50:00;;;;;;;4.72;1.67;;;10.90;99.90;;;;;;2055370;28;20731;-83
2023/08/08 01:51:00;;;;;;;1.90;1.40;;;10.80;99.90;;;;;;2051392;28;20306;-84
2023/08/08 01:52:01;;;;;;;1.80;1.50;;;10.70;99.90;;;;;;2046175;28;20713;-84
2023/08/08 01:53:02;;;;;;;1.43;1.20;;;10.70;99.90;;;;;;2043575;28;20187;-84
2023/08/08 01:54:03;;;;;;;3.05;1.48;;;10.70;99.90;;;;;;2055008;28;20281;-84
2023/08/08 01:55:05;;;;;;;2.63;1.43;;;10.70;99.90;;;;;;2051330;28;20199;-84
2023/08/08 01:56:05;;;;;;;2.53;1.70;;;10.80;99.90;;;;;;2047928;28;20211;-84
2023/08/08 01:57:06;;;;;;;1.70;1.53;;;10.90;99.90;;;;;;2045513;28;20414;-84
2023/08/08 01:58:07;;;;;;;3.57;1.80;;;11.00;99.90;;;;;;2047067;28;20243;-84
2023/08/08 01:59:07;;;;;;;2.40;1.70;;;11.00;99.90;;;;;;2047540;28;20206;-84
2023/08/08 02:00:09;;;;;;;3.27;1.60;;;11.00;99.90;;;;;;2047986;28;20203;-84
2023/08/08 02:01:10;;;;;;;2.75;1.92;;;11.10;99.90;;;;;;2047193;28;20590;-84
2023/08/08 02:02:10;;;;;;;1.90;1.53;;;11.10;99.90;;;;;;2051677;28;20218;-84
2023/08/08 02:03:11;;;;;;;2.03;1.63;;;10.90;99.90;;;;;;2052197;28;20620;-84
2023/08/08 02:04:12;;;;;;;3.10;1.33;;;11.00;99.90;;;;;;2051392;28;20248;-84
2023/08/08 02:05:12;;;;;;;2.43;1.43;;;11.10;99.90;;;;;;2047173;28;20200;-84
2023/08/08 02:06:13;;;;;;;2.93;1.47;;;11.10;99.90;;;;;;2047418;28;20664;-84
2023/08/08 02:07:14;;;;;;;1.63;1.53;;;11.10;99.90;;;;;;2061107;28;20186;-84
2023/08/08 02:08:15;;;;;;;2.30;1.83;;;11.10;99.90;;;;;;2057038;28;20187;-85
2023/08/08 02:09:15;;;;;;;1.97;1.53;;;11.10;99.90;;;;;;2052043;28;20729;-84
2023/08/08 02:10:16;;;;;;;4.33;1.50;;;11.10;99.90;;;;;;2039705;29;20216;-84
2023/08/08 02:11:17;;;;;;;1.60;1.50;;;11.20;99.90;;;;;;2038942;29;20603;-84
2023/08/08 02:12:17;;;;;;;1.60;1.50;;;11.10;99.90;;;;;;2047279;28;20699;-84
2023/08/08 02:13:18;;;;;;;1.77;1.50;;;11.10;99.90;;;;;;2055587;28;20182;-84
2023/08/08 02:14:19;;;;;;;5.07;1.70;;;11.10;99.90;;;;;;2054887;28;20206;-84
2023/08/08 02:15:19;;;;;;;1.70;1.50;;;11.10;99.90;;;;;;2051533;28;20665;-83
2023/08/08 02:16:20;;;;;;;2.17;1.50;;;11.10;99.90;;;;;;2043638;28;21528;-84
2023/08/08 02:17:21;;;;;;;2.80;1.50;;;11.10;99.90;;;;;;2039406;29;20251;-84
2023/08/08 02:18:22;;;;;;;1.87;1.57;;;11.10;99.90;;;;;;2043350;28;20313;-84
2023/08/08 02:19:22;;;;;;;2.10;1.30;;;11.20;99.90;;;;;;2046862;28;20231;-84
2023/08/08 02:20:23;;;;;;;4.80;1.43;;;11.20;99.90;;;;;;2045457;28;20231;-84
2023/08/08 02:21:24;;;;;;;3.00;1.40;;;11.10;99.90;;;;;;2047932;28;20727;-84
2023/08/08 02:22:25;;;;;;;1.57;1.40;;;11.00;99.90;;;;;;2053584;28;20238;-83
2023/08/08 02:23:26;;;;;;;1.95;1.42;;;11.00;99.90;;;;;;2052903;28;20358;-85
2023/08/08 02:24:27;;;;;;;2.23;1.63;;;11.10;99.90;;;;;;2042945;28;20361;-83
2023/08/08 02:25:27;;;;;;;1.90;1.37;;;11.00;99.90;;;;;;2039455;29;20475;-83
2023/08/08 02:26:28;;;;;;;2.63;1.80;;;11.00;99.90;;;;;;2040243;29;20767;-83
2023/08/08 02:27:29;;;;;;;3.57;1.30;;;11.00;99.90;;;;;;2047208;28;20231;-83
2023/08/08 02:28:29;;;;;;;4.03;1.63;;;11.10;99.90;;;;;;2055277;28;20242;-83
2023/08/08 02:29:30;;;;;;;2.73;1.70;;;11.10;99.90;;;;;;2047209;28;20258;-83
2023/08/08 02:30:31;;;;;;;2.60;1.30;;;11.10;99.90;;;;;;2047526;28;20322;-82
2023/08/08 02:31:32;;;;;;;2.97;1.57;;;11.10;99.90;;;;;;2053486;28;20353;-83
2023/08/08 02:32:32;;;;;;;1.57;1.43;;;11.10;99.90;;;;;;2054035;28;20238;-83
2023/08/08 02:33:33;;;;;;;2.17;1.40;;;11.20;99.90;;;;;;2053182;28;20227;-84
2023/08/08 02:34:34;;;;;;;1.60;1.30;;;11.30;99.90;;;;;;2053166;28;20262;-83
2023/08/08 02:35:37;;;;;;;2.30;1.40;;;11.20;99.90;;;;;;2052229;28;20245;-83
2023/08/08 02:36:38;;;;;;;3.15;1.40;;;11.10;99.90;;;;;;2060308;28;20229;-83
2023/08/08 02:37:38;;;;;;;1.90;1.37;;;11.10;99.90;;;;;;2055561;28;20233;-83
2023/08/08 02:38:39;;;;;;;1.97;1.37;;;11.00;99.90;;;;;;2039570;29;20232;-83
2023/08/08 02:39:41;;;;;;;1.40;1.30;;;11.00;99.90;;;;;;2051258;28;20246;-83
2023/08/08 02:40:41;;;;;;;1.60;1.33;;;10.80;99.90;;;;;;2056480;28;20320;-84
2023/08/08 02:41:42;;;;;;;1.87;1.20;;;10.90;99.90;;;;;;2053330;28;20222;-85
2023/08/08 02:42:43;;;;;;;2.33;1.35;;;11.00;99.90;;;;;;2055794;28;20222;-84
2023/08/08 02:43:45;;;;;;;1.57;1.40;;;11.00;99.90;;;;;;2050128;28;20227;-84
2023/08/08 02:44:45;;;;;;;1.30;1.15;;;11.20;99.90;;;;;;2040970;28;20232;-84
2023/08/08 02:45:46;;;;;;;2.63;1.30;;;11.20;99.90;;;;;;2037612;28;20232;-84
2023/08/08 02:46:47;;;;;;;2.87;1.50;;;11.20;99.90;;;;;;2038968;29;20229;-84
2023/08/08 02:47:47;;;;;;;1.87;1.20;;;11.30;99.90;;;;;;2048621;28;20231;-84
2023/08/08 02:48:48;;;;;;;1.83;1.50;;;11.40;99.90;;;;;;2044901;28;20239;-83
2023/08/08 02:49:49;;;;;;;2.00;1.40;;;11.40;99.90;;;;;;2052875;28;20219;-83
2023/08/08 02:50:49;;;;;;;1.90;1.10;;;11.50;99.90;;;;;;2045068;28;20629;-83
2023/08/08 02:51:50;;;;;;;2.90;1.80;;;11.40;99.90;;;;;;2040177;28;20248;-83
2023/08/08 02:52:51;;;;;;;1.10;1.00;;;11.40;99.90;;;;;;2041060;29;20232;-83
2023/08/08 02:53:52;;;;;;;1.95;1.20;;;11.50;99.90;;;;;;2047395;28;20618;-83
2023/08/08 02:54:53;;;;;;;3.30;1.80;;;11.40;99.90;;;;;;2048749;28;20235;-84
2023/08/08 02:55:53;;;;;;;2.30;1.53;;;11.50;99.90;;;;;;2056594;28;20261;-83
2023/08/08 02:56:54;;;;;;;1.37;1.27;;;11.40;99.90;;;;;;2048908;28;20227;-84
2023/08/08 02:57:55;;;;;;;3.90;1.50;;;11.40;99.90;;;;;;2054754;28;20687;-84
2023/08/08 02:58:56;;;;;;;3.43;1.53;;;11.40;99.90;;;;;;2056946;28;20550;-84
2023/08/08 02:59:56;;;;;;;1.83;1.30;;;11.50;99.90;;;;;;2048449;28;20227;-84
2023/08/08 03:00:57;;;;;;;2.80;1.30;;;11.50;99.90;;;;;;2046532;28;20266;-83
2023/08/08 03:01:58;;;;;;;2.20;1.30;;;11.40;99.90;;;;;;2056750;28;20794;-84
2023/08/08 03:02:59;;;;;;;1.47;1.33;;;11.30;99.90;;;;;;2049323;28;20298;-84
2023/08/08 03:03:59;;;;;;;5.20;1.60;;;11.30;99.90;;;;;;2050027;28;20630;-83
2023/08/08 03:05:00;;;;;;;2.50;1.13;;;11.30;99.90;;;;;;2060731;28;20230;-84
2023/08/08 03:06:01;;;;;;;2.10;1.33;;;11.30;99.90;;;;;;2055975;28;20669;-83
2023/08/08 03:07:04;;;;;;;1.60;1.50;;;11.20;99.90;;;;;;2058713;28;20179;-83
2023/08/08 03:08:05;;;;;;;1.40;1.30;;;10.90;99.90;;;;;;2052168;28;20260;-85
2023/08/08 03:09:05;;;;;;;2.83;1.27;;;10.80;99.90;;;;;;2064942;28;20300;-84
2023/08/08 03:10:06;;;;;;;2.67;1.30;;;10.70;99.90;;;;;;2059574;28;20196;-84
2023/08/08 03:11:07;;;;;;;2.90;1.83;;;10.70;99.90;;;;;;2069482;28;20194;-84
2023/08/08 03:12:08;;;;;;;1.70;1.20;;;10.60;99.90;;;;;;2057563;28;20187;-84
2023/08/08 03:13:09;;;;;;;1.77;1.30;;;10.60;99.90;;;;;;2044418;28;20685;-83
2023/08/08 03:14:10;;;;;;;2.20;1.33;;;10.60;99.90;;;;;;2057709;28;20286;-83
2023/08/08 03:15:11;;;;;;;2.93;2.00;;;10.60;99.90;;;;;;2053773;28;20241;-84
2023/08/08 03:16:11;;;;;;;2.38;1.20;;;10.70;99.90;;;;;;2041834;28;20176;-84
2023/08/08 03:17:12;;;;;;;2.03;1.30;;;10.70;99.90;;;;;;2041030;29;20613;-83
2023/08/08 03:18:13;;;;;;;1.40;1.27;;;10.60;99.90;;;;;;2038060;29;20183;-83
2023/08/08 03:19:13;;;;;;;1.83;1.53;;;10.60;99.90;;;;;;2040765;29;20224;-84
2023/08/08 03:20:14;;;;;;;3.23;1.47;;;10.50;99.90;;;;;;2048080;28;20578;-83
2023/08/08 03:21:15;;;;;;;1.53;1.33;;;10.40;99.90;;;;;;2057295;28;20226;-83
2023/08/08 03:22:15;;;;;;;2.27;1.20;;;10.40;99.90;;;;;;2056846;28;20196;-83
2023/08/08 03:23:16;;;;;;;2.50;1.30;;;10.30;99.90;;;;;;2060386;28;20689;-83
2023/08/08 03:24:17;;;;;;;1.83;1.30;;;10.40;99.90;;;;;;2043476;29;20234;-83
2023/08/08 03:25:18;;;;;;;2.40;1.43;;;10.30;99.90;;;;;;2040799;28;20191;-84
2023/08/08 03:26:18;;;;;;;1.30;1.20;;;10.40;99.90;;;;;;2041565;28;20192;-84
2023/08/08 03:27:19;;;;;;;1.73;1.30;;;10.50;99.90;;;;;;2037849;29;20367;-84
2023/08/08 03:28:20;;;;;;;4.10;1.20;;;10.50;99.90;;;;;;2040983;29;20201;-83
2023/08/08 03:29:20;;;;;;;3.10;1.40;;;10.40;99.90;;;;;;2044279;28;20240;-85
2023/08/08 03:30:21;;;;;;;4.23;1.53;;;10.40;99.90;;;;;;2048566;28;20600;-84
2023/08/08 03:31:22;;;;;;;1.97;1.40;;;10.40;99.90;;;;;;2048433;28;20290;-83
2023/08/08 03:32:23;;;;;;;1.90;1.40;;;10.40;99.90;;;;;;2048873;28;20238;-83
2023/08/08 03:33:23;;;;;;;2.63;1.40;;;10.40;99.90;;;;;;2048884;29;20686;-83
2023/08/08 03:34:24;;;;;;;3.20;1.40;;;10.40;99.90;;;;;;2055463;28;20308;-83
2023/08/08 03:35:25;;;;;;;2.47;1.33;;;10.40;99.90;;;;;;2056756;28;20605;-83
2023/08/08 03:36:25;;;;;;;1.50;1.30;;;10.40;99.90;;;;;;2048694;28;20266;-84
2023/08/08 03:37:26;;;;;;;1.43;1.27;;;10.40;99.90;;;;;;2040751;29;20235;-83
2023/08/08 03:38:27;;;;;;;2.17;1.47;;;10.40;99.90;;;;;;2039486;29;20227;-83
2023/08/08 03:39:28;;;;;;;1.80;1.53;;;10.50;99.90;;;;;;2056230;28;20235;-83
2023/08/08 03:40:28;;;;;;;1.30;1.20;;;10.50;99.90;;;;;;2060090;28;20238;-83
2023/08/08 03:41:29;;;;;;;1.77;1.40;;;10.50;99.90;;;;;;2053696;28;20247;-83
2023/08/08 03:42:30;;;;;;;2.50;1.80;;;10.40;99.90;;;;;;2049045;28;20318;-84
2023/08/08 03:43:31;;;;;;;3.27;1.47;;;10.50;99.90;;;;;;2049187;28;20329;-83
2023/08/08 03:44:32;;;;;;;2.60;1.25;;;10.60;99.90;;;;;;2056624;28;20691;-84
2023/08/08 03:45:33;;;;;;;2.40;1.40;;;10.50;99.90;;;;;;2056923;28;20233;-85
2023/08/08 03:46:33;;;;;;;1.73;1.60;;;10.50;99.90;;;;;;2059141;28;20236;-83
2023/08/08 03:47:34;;;;;;;1.93;1.40;;;10.50;99.90;;;;;;2048315;28;20247;-83
2023/08/08 03:48:35;;;;;;;2.67;1.43;;;10.50;99.90;;;;;;2041163;29;20294;-83
2023/08/08 03:49:35;;;;;;;2.70;1.77;;;10.40;99.90;;;;;;2055677;28;20746;-83
2023/08/08 03:50:36;;;;;;;3.13;1.57;;;10.40;99.90;;;;;;2047920;28;20238;-83
2023/08/08 03:51:37;;;;;;;2.53;1.50;;;10.30;99.90;;;;;;2048456;28;20235;-84
2023/08/08 03:52:38;;;;;;;2.70;1.40;;;10.30;99.90;;;;;;2054688;28;20695;-83
2023/08/08 03:53:38;;;;;;;2.93;1.30;;;10.20;99.90;;;;;;2044253;28;20330;-83
2023/08/08 03:54:39;;;;;;;1.50;1.40;;;10.30;99.90;;;;;;2047824;28;20239;-83
2023/08/08 03:55:40;;;;;;;1.87;1.50;;;10.30;99.90;;;;;;2056254;28;20277;-83
2023/08/08 03:56:41;;;;;;;2.27;1.30;;;10.20;99.90;;;;;;2048075;28;20236;-83
2023/08/08 03:57:42;;;;;;;1.90;1.70;;;10.20;99.90;;;;;;2044692;28;20281;-83
2023/08/08 03:58:43;;;;;;;1.85;1.25;;;10.20;99.90;;;;;;2055810;28;20241;-83
2023/08/08 03:59:43;;;;;;;3.07;1.73;;;10.20;99.90;;;;;;2048677;28;20606;-83
2023/08/08 04:00:46;;;;;;;1.30;1.20;;;10.20;99.90;;;;;;2044409;28;20244;-82
2023/08/08 04:01:47;;;;;;;1.90;1.40;;;10.20;99.90;;;;;;2040794;28;20231;-83
2023/08/08 04:02:47;;;;;;;3.33;1.33;;;10.20;99.90;;;;;;2038432;29;20304;-82
2023/08/08 04:03:48;;;;;;;1.83;1.47;;;10.10;99.90;;;;;;2053854;28;20317;-83
2023/08/08 04:04:49;;;;;;;2.43;1.60;;;10.10;99.90;;;;;;2048245;28;20306;-83
2023/08/08 04:05:49;;;;;;;2.57;1.43;;;10.10;99.90;;;;;;2056543;28;20268;-83
2023/08/08 04:06:50;;;;;;;2.03;1.53;;;10.10;99.90;;;;;;2047528;28;20654;-82
2023/08/08 04:07:51;;;;;;;2.93;1.60;;;10.10;99.90;;;;;;2041385;29;20231;-83
2023/08/08 04:08:51;;;;;;;1.83;1.50;;;10.00;99.90;;;;;;2048267;28;20286;-82
2023/08/08 04:09:52;;;;;;;1.93;1.43;;;10.00;99.90;;;;;;2047159;28;20725;-83
2023/08/08 04:10:53;;;;;;;1.80;1.40;;;9.90;99.90;;;;;;2049288;28;20262;-83
2023/08/08 04:11:54;;;;;;;1.60;1.50;;;9.90;99.90;;;;;;2047214;28;20801;-83
2023/08/08 04:12:55;;;;;;;2.53;1.40;;;9.90;99.90;;;;;;2056318;28;20280;-83
2023/08/08 04:13:55;;;;;;;1.87;1.43;;;9.90;99.90;;;;;;2055296;28;20325;-83
2023/08/08 04:14:56;;;;;;;3.07;1.40;;;9.80;99.90;;;;;;2048662;28;20247;-84
2023/08/08 04:15:57;;;;;;;1.43;1.30;;;9.80;99.90;;;;;;2040503;29;20275;-83
2023/08/08 04:16:57;;;;;;;4.60;1.77;;;9.70;99.90;;;;;;2045186;29;20230;-83
2023/08/08 04:17:58;;;;;;;2.27;1.60;;;9.60;99.90;;;;;;2062192;28;20286;-83
2023/08/08 04:18:59;;;;;;;1.60;1.40;;;9.60;99.90;;;;;;2052740;28;20631;-83
2023/08/08 04:20:00;;;;;;;1.83;1.50;;;9.60;99.90;;;;;;2056336;28;20642;-84
2023/08/08 04:21:01;;;;;;;3.43;1.60;;;9.70;99.90;;;;;;2052371;28;20242;-84
2023/08/08 04:22:01;;;;;;;1.67;1.50;;;9.80;99.90;;;;;;2056216;28;20202;-84
2023/08/08 04:23:02;;;;;;;1.40;1.30;;;9.80;99.90;;;;;;2041756;28;20177;-84
2023/08/08 04:24:03;;;;;;;2.10;1.50;;;9.80;99.90;;;;;;2047974;28;20179;-83
2023/08/08 04:25:05;;;;;;;1.90;1.43;;;9.80;99.90;;;;;;2048414;28;20594;-84
2023/08/08 04:26:06;;;;;;;2.08;1.40;;;9.80;99.90;;;;;;2052939;28;20228;-84
2023/08/08 04:27:06;;;;;;;2.00;1.73;;;9.80;99.90;;;;;;2040636;29;20184;-84
2023/08/08 04:28:07;;;;;;;1.67;1.47;;;9.80;99.90;;;;;;2044478;28;20589;-84
2023/08/08 04:29:08;;;;;;;2.17;1.57;;;9.80;99.90;;;;;;2042582;28;20711;-84
2023/08/08 04:30:09;;;;;;;1.80;1.40;;;9.80;99.90;;;;;;2037915;29;20186;-84
2023/08/08 04:31:09;;;;;;;1.90;1.60;;;9.90;99.90;;;;;;2040336;28;20206;-84
2023/08/08 04:32:10;;;;;;;1.60;1.37;;;9.90;99.90;;;;;;2048570;28;20271;-84
2023/08/08 04:33:11;;;;;;;2.13;1.50;;;9.90;99.90;;;;;;2052744;28;20703;-84
2023/08/08 04:34:12;;;;;;;1.70;1.20;;;9.90;99.90;;;;;;2036098;29;20302;-84
2023/08/08 04:35:12;;;;;;;1.70;1.33;;;9.90;99.90;;;;;;2055932;28;20183;-84
2023/08/08 04:36:13;;;;;;;2.93;1.40;;;9.90;99.90;;;;;;2055947;28;20185;-84
2023/08/08 04:37:14;;;;;;;4.20;1.57;;;9.90;99.90;;;;;;2045153;28;20237;-84
2023/08/08 04:38:17;;;;;;;2.03;1.53;;;9.90;99.90;;;;;;2051343;28;20223;-84
2023/08/08 04:39:18;;;;;;;1.52;1.40;;;9.90;99.90;;;;;;2048057;28;20201;-84
2023/08/08 04:40:19;;;;;;;2.10;1.60;;;10.00;99.90;;;;;;2048306;28;20221;-84
2023/08/08 04:41:19;;;;;;;1.53;1.30;;;10.00;99.90;;;;;;2056021;28;20229;-84
2023/08/08 04:42:21;;;;;;;1.73;1.50;;;9.90;99.90;;;;;;2048316;28;20213;-84
2023/08/08 04:43:22;;;;;;;1.45;1.20;;;9.90;99.90;;;;;;2052519;28;20231;-84
2023/08/08 04:44:23;;;;;;;3.57;1.50;;;9.90;99.90;;;;;;2052396;29;20239;-84
2023/08/08 04:45:23;;;;;;;2.40;1.60;;;9.90;99.90;;;;;;2050307;28;20245;-84
2023/08/08 04:46:24;;;;;;;5.33;1.40;;;10.00;99.90;;;;;;2058820;28;20742;-84
2023/08/08 04:47:25;;;;;;;1.77;1.60;;;9.90;99.90;;;;;;2052801;28;20684;-84
2023/08/08 04:48:26;;;;;;;1.83;1.60;;;9.90;99.90;;;;;;2050375;28;20228;-84
2023/08/08 04:49:26;;;;;;;2.93;1.70;;;9.90;99.90;;;;;;2058382;28;20598;-84
2023/08/08 04:50:28;;;;;;;3.93;1.80;;;9.90;99.90;;;;;;2058566;28;20317;-84
2023/08/08 04:51:28;;;;;;;2.17;1.77;;;9.90;99.90;;;;;;2060816;28;20237;-84
2023/08/08 04:52:29;;;;;;;1.93;1.67;;;9.80;99.90;;;;;;2060009;28;20809;-84
2023/08/08 04:53:30;;;;;;;2.73;1.67;;;9.80;99.90;;;;;;2055451;28;20237;-83
2023/08/08 04:54:30;;;;;;;2.70;1.50;;;9.80;99.90;;;;;;2052410;28;20232;-84
2023/08/08 04:55:31;;;;;;;1.50;1.40;;;9.80;99.90;;;;;;2056755;28;20305;-84
2023/08/08 04:56:32;;;;;;;3.83;1.80;;;9.80;99.90;;;;;;2052763;28;20308;-84
2023/08/08 04:57:32;;;;;;;1.90;1.70;;;9.80;99.90;;;;;;2060212;28;20226;-84
2023/08/08 04:58:33;;;;;;;4.17;1.90;;;9.80;99.90;;;;;;2039424;28;20240;-83
2023/08/08 04:59:34;;;;;;;2.17;1.70;;;9.80;99.90;;;;;;2047943;28;20312;-84
2023/08/08 05:00:35;;;;;;;2.63;2.00;;;9.60;99.90;;;;;;2040002;29;20745;-84
2023/08/08 05:01:36;;;;;;;1.65;1.52;;;9.60;99.90;;;;;;2048241;28;20248;-84
2023/08/08 05:02:38;;;;;;;2.63;1.87;;;9.60;99.90;;;;;;2047416;28;20713;-86
2023/08/08 05:03:39;;;;;;;2.03;1.60;;;9.60;99.90;;;;;;2060766;28;20216;-84
2023/08/08 05:04:39;;;;;;;3.13;1.50;;;9.70;99.90;;;;;;2057373;28;20234;-85
2023/08/08 05:05:40;;;;;;;2.53;1.80;;;9.70;99.90;;;;;;2056130;28;20237;-83
2023/08/08 05:06:41;;;;;;;2.50;1.87;;;9.80;99.90;;;;;;2051035;28;20237;-83
2023/08/08 05:07:41;;;;;;;2.33;1.80;;;9.70;99.90;;;;;;2046725;28;20244;-83
2023/08/08 05:08:42;;;;;;;2.40;1.90;;;9.70;99.90;;;;;;2048088;28;20831;-84
2023/08/08 05:09:43;;;;;;;2.92;2.00;;;9.80;99.90;;;;;;2048562;28;20321;-83
2023/08/08 05:10:44;;;;;;;1.67;1.50;;;9.70;99.90;;;;;;2056490;28;20446;-84
2023/08/08 05:11:44;;;;;;;2.43;1.90;;;9.80;99.90;;;;;;2048537;28;20246;-83
2023/08/08 05:12:45;;;;;;;2.80;2.00;;;9.90;99.90;;;;;;2056826;28;20238;-83
2023/08/08 05:13:46;;;;;;;3.03;1.70;;;9.80;99.90;;;;;;2063872;28;20239;-84
2023/08/08 05:14:46;;;;;;;2.30;1.80;;;9.70;99.90;;;;;;2044975;29;20246;-84
2023/08/08 05:15:47;;;;;;;1.93;1.70;;;9.80;99.90;;;;;;2047880;28;20240;-84
2023/08/08 05:16:48;;;;;;;4.67;2.10;;;9.80;99.90;;;;;;2055831;28;20267;-84
2023/08/08 05:17:49;;;;;;;2.30;1.90;;;9.90;99.90;;;;;;2056160;28;20229;-83
2023/08/08 05:18:49;;;;;;;2.07;1.77;;;9.90;99.90;;;;;;2042395;28;20271;-84
2023/08/08 05:19:50;;;;;;;2.40;2.13;;;10.00;99.90;;;;;;2046471;28;20251;-84